createdAt,value
2023-05-14T00:00:45.537Z,789.00
2023-05-14T00:01:45.618Z,787.00
2023-05-14T00:02:45.796Z,775.00
2023-05-14T00:03:45.852Z,802.00
2023-05-14T00:04:45.858Z,798.00
2023-05-14T00:05:45.930Z,796.00
2023-05-14T00:06:45.995Z,797.00
2023-05-14T00:07:46.078Z,789.00
2023-05-14T00:08:46.153Z,789.00
2023-05-14T00:09:46.242Z,803.00
2023-05-14T00:10:46.324Z,797.00
2023-05-14T00:11:46.388Z,799.00
2023-05-14T00:12:46.454Z,792.00
2023-05-14T00:13:46.529Z,795.00
2023-05-14T00:14:46.612Z,799.00
2023-05-14T00:15:46.773Z,791.00
2023-05-14T00:16:46.766Z,795.00
2023-05-14T00:17:46.879Z,783.00
2023-05-14T00:18:46.949Z,806.00
2023-05-14T00:19:46.996Z,800.00
2023-05-14T00:20:47.090Z,785.00
2023-05-14T00:21:47.162Z,785.00
2023-05-14T00:22:47.237Z,793.00
2023-05-14T00:23:47.321Z,788.00
2023-05-14T00:24:47.392Z,781.00
2023-05-14T00:25:47.474Z,789.00
2023-05-14T00:26:47.541Z,787.00
2023-05-14T00:27:47.625Z,791.00
2023-05-14T00:28:47.698Z,787.00
2023-05-14T00:29:47.765Z,790.00
2023-05-14T00:30:47.836Z,786.00
2023-05-14T00:31:47.994Z,770.00
2023-05-14T00:32:47.998Z,782.00
2023-05-14T00:33:48.065Z,773.00
2023-05-14T00:34:48.130Z,780.00
2023-05-14T00:35:48.275Z,778.00
2023-05-14T00:36:48.305Z,782.00
2023-05-14T00:37:48.396Z,788.00
2023-05-14T00:38:48.460Z,789.00
2023-05-14T00:39:48.546Z,779.00
2023-05-14T00:40:48.631Z,790.00
2023-05-14T00:41:48.710Z,767.00
2023-05-14T00:42:48.788Z,786.00
2023-05-14T00:43:48.875Z,781.00
2023-05-14T00:44:48.958Z,773.00
2023-05-14T00:45:49.037Z,767.00
2023-05-14T00:46:49.142Z,774.00
2023-05-14T00:47:49.200Z,770.00
2023-05-14T00:48:49.266Z,775.00
2023-05-14T00:49:49.350Z,782.00
2023-05-14T00:50:49.428Z,775.00
2023-05-14T00:51:49.508Z,770.00
2023-05-14T00:52:49.589Z,769.00
2023-05-14T00:53:49.674Z,784.00
2023-05-14T00:54:49.749Z,778.00
2023-05-14T00:55:49.818Z,773.00
2023-05-14T00:56:49.898Z,775.00
2023-05-14T00:57:49.976Z,775.00
2023-05-14T00:58:50.051Z,766.00
2023-05-14T00:59:50.134Z,782.00
2023-05-14T01:00:50.263Z,766.00
2023-05-14T01:01:50.288Z,760.00
2023-05-14T01:02:50.438Z,773.00
2023-05-14T01:03:50.536Z,771.00
2023-05-14T01:04:50.536Z,761.00
2023-05-14T01:05:50.595Z,768.00
2023-05-14T01:06:50.685Z,760.00
2023-05-14T01:07:50.756Z,768.00
2023-05-14T01:08:50.853Z,760.00
2023-05-14T01:09:50.910Z,765.00
2023-05-14T01:10:50.987Z,770.00
2023-05-14T01:11:51.073Z,765.00
2023-05-14T01:12:51.129Z,762.00
2023-05-14T01:13:51.213Z,763.00
2023-05-14T01:14:51.289Z,761.00
2023-05-14T01:15:51.359Z,760.00
2023-05-14T01:16:51.550Z,764.00
2023-05-14T01:17:51.554Z,764.00
2023-05-14T01:18:51.665Z,758.00
2023-05-14T01:19:51.663Z,747.00
2023-05-14T01:20:51.737Z,761.00
2023-05-14T01:21:51.817Z,747.00
2023-05-14T01:22:51.900Z,758.00
2023-05-14T01:23:51.981Z,754.00
2023-05-14T01:24:52.054Z,750.00
2023-05-14T01:25:52.121Z,755.00
2023-05-14T01:26:52.209Z,743.00
2023-05-14T01:27:52.291Z,749.00
2023-05-14T01:28:52.358Z,756.00
2023-05-14T01:29:52.433Z,744.00
2023-05-14T01:30:52.504Z,760.00
2023-05-14T01:31:52.640Z,760.00
2023-05-14T01:32:52.730Z,759.00
2023-05-14T01:33:52.746Z,750.00
2023-05-14T01:34:52.813Z,745.00
2023-05-14T01:35:52.877Z,757.00
2023-05-14T01:36:52.956Z,760.00
2023-05-14T01:37:53.044Z,744.00
2023-05-14T01:38:53.120Z,757.00
2023-05-14T01:39:53.246Z,746.00
2023-05-14T01:40:53.377Z,752.00
2023-05-14T01:41:53.362Z,756.00
2023-05-14T01:42:53.502Z,752.00
2023-05-14T01:43:53.531Z,753.00
2023-05-14T01:44:53.613Z,753.00
2023-05-14T01:45:53.715Z,742.00
2023-05-14T01:46:53.754Z,737.00
2023-05-14T01:47:53.888Z,744.00
2023-05-14T01:48:53.917Z,749.00
2023-05-14T01:49:53.997Z,749.00
2023-05-14T01:50:54.065Z,742.00
2023-05-14T01:51:54.148Z,739.00
2023-05-14T01:52:54.223Z,740.00
2023-05-14T01:53:54.314Z,749.00
2023-05-14T01:54:54.385Z,739.00
2023-05-14T01:55:54.453Z,754.00
2023-05-14T01:56:54.537Z,728.00
2023-05-14T01:57:54.636Z,736.00
2023-05-14T01:58:54.690Z,735.00
2023-05-14T01:59:54.747Z,739.00
2023-05-14T02:00:54.805Z,741.00
2023-05-14T02:01:54.939Z,739.00
2023-05-14T02:02:54.955Z,735.00
2023-05-14T02:03:55.014Z,740.00
2023-05-14T02:04:55.038Z,744.00
2023-05-14T02:05:55.108Z,742.00
2023-05-14T02:06:55.171Z,730.00
2023-05-14T02:07:55.226Z,749.00
2023-05-14T02:08:55.278Z,741.00
2023-05-14T02:09:55.350Z,728.00
2023-05-14T02:10:55.396Z,736.00
2023-05-14T02:11:55.442Z,744.00
2023-05-14T02:12:55.484Z,730.00
2023-05-14T02:13:55.540Z,750.00
2023-05-14T02:14:55.591Z,741.00
2023-05-14T02:15:55.700Z,737.00
2023-05-14T02:16:55.733Z,735.00
2023-05-14T02:17:55.863Z,752.00
2023-05-14T02:18:55.930Z,739.00
2023-05-14T02:19:55.982Z,736.00
2023-05-14T02:20:56.058Z,744.00
2023-05-14T02:21:56.132Z,745.00
2023-05-14T02:22:56.206Z,746.00
2023-05-14T02:23:56.297Z,743.00
2023-05-14T02:24:56.392Z,735.00
2023-05-14T02:25:56.451Z,736.00
2023-05-14T02:26:56.536Z,753.00
2023-05-14T02:27:56.624Z,736.00
2023-05-14T02:28:56.701Z,748.00
2023-05-14T02:29:56.786Z,755.00
2023-05-14T02:30:56.869Z,744.00
2023-05-14T02:31:57.169Z,735.00
2023-05-14T02:32:57.102Z,742.00
2023-05-14T02:33:57.099Z,720.00
2023-05-14T02:34:57.174Z,730.00
2023-05-14T02:35:57.275Z,736.00
2023-05-14T02:36:57.344Z,750.00
2023-05-14T02:37:57.424Z,730.00
2023-05-14T02:38:57.524Z,738.00
2023-05-14T02:39:57.569Z,731.00
2023-05-14T02:40:57.654Z,740.00
2023-05-14T02:41:57.743Z,736.00
2023-05-14T02:42:57.808Z,743.00
2023-05-14T02:43:57.904Z,744.00
2023-05-14T02:44:57.982Z,747.00
2023-05-14T02:45:58.061Z,732.00
2023-05-14T02:46:58.180Z,753.00
2023-05-14T02:47:58.280Z,739.00
2023-05-14T02:48:58.305Z,737.00
2023-05-14T02:49:58.381Z,728.00
2023-05-14T02:50:58.473Z,721.00
2023-05-14T02:51:58.542Z,732.00
2023-05-14T02:52:58.620Z,745.00
2023-05-14T02:53:58.698Z,743.00
2023-05-14T02:54:58.774Z,733.00
2023-05-14T02:55:58.861Z,744.00
2023-05-14T02:56:58.936Z,731.00
2023-05-14T02:57:59.040Z,741.00
2023-05-14T02:58:59.156Z,735.00
2023-05-14T02:59:59.218Z,744.00
2023-05-14T03:00:59.289Z,727.00
2023-05-14T03:01:59.362Z,734.00
2023-05-14T03:02:59.444Z,748.00
2023-05-14T03:03:59.487Z,740.00
2023-05-14T03:04:59.577Z,752.00
2023-05-14T03:05:59.661Z,753.00
2023-05-14T03:06:59.750Z,740.00
2023-05-14T03:07:59.831Z,730.00
2023-05-14T03:08:59.920Z,737.00
2023-05-14T03:09:59.995Z,740.00
2023-05-14T03:11:00.097Z,727.00
2023-05-14T03:12:00.164Z,740.00
2023-05-14T03:13:00.292Z,731.00
2023-05-14T03:14:00.327Z,743.00
2023-05-14T03:15:00.411Z,737.00
2023-05-14T03:16:00.506Z,735.00
2023-05-14T03:17:00.690Z,730.00
2023-05-14T03:18:00.721Z,744.00
2023-05-14T03:19:00.823Z,740.00
2023-05-14T03:20:00.858Z,731.00
2023-05-14T03:21:00.954Z,734.00
2023-05-14T03:22:01.020Z,743.00
2023-05-14T03:23:01.122Z,738.00
2023-05-14T03:24:01.196Z,729.00
2023-05-14T03:25:01.299Z,736.00
2023-05-14T03:26:01.390Z,727.00
2023-05-14T03:27:01.453Z,729.00
2023-05-14T03:28:01.527Z,728.00
2023-05-14T03:29:01.616Z,736.00
2023-05-14T03:30:01.704Z,732.00
2023-05-14T03:31:01.889Z,734.00
2023-05-14T03:32:01.882Z,737.00
2023-05-14T03:33:01.996Z,742.00
2023-05-14T03:34:02.065Z,734.00
2023-05-14T03:35:02.130Z,747.00
2023-05-14T03:36:02.227Z,725.00
2023-05-14T03:37:02.313Z,737.00
2023-05-14T03:38:02.403Z,731.00
2023-05-14T03:39:02.476Z,737.00
2023-05-14T03:40:02.556Z,744.00
2023-05-14T03:41:02.677Z,727.00
2023-05-14T03:42:02.725Z,729.00
2023-05-14T03:43:02.808Z,733.00
2023-05-14T03:44:02.892Z,737.00
2023-05-14T03:45:02.975Z,723.00
2023-05-14T03:46:03.063Z,735.00
2023-05-14T03:47:03.153Z,714.00
2023-05-14T03:48:03.306Z,717.00
2023-05-14T03:49:03.433Z,728.00
2023-05-14T03:50:03.413Z,724.00
2023-05-14T03:51:03.507Z,725.00
2023-05-14T03:52:03.582Z,729.00
2023-05-14T03:53:03.669Z,723.00
2023-05-14T03:54:03.770Z,725.00
2023-05-14T03:55:03.839Z,711.00
2023-05-14T03:56:03.926Z,721.00
2023-05-14T03:57:04.012Z,727.00
2023-05-14T03:58:04.097Z,718.00
2023-05-14T03:59:04.185Z,727.00
2023-05-14T04:00:04.261Z,714.00
2023-05-14T04:01:04.348Z,730.00
2023-05-14T04:02:04.425Z,725.00
2023-05-14T04:03:04.642Z,728.00
2023-05-14T04:04:04.681Z,742.00
2023-05-14T04:05:04.698Z,709.00
2023-05-14T04:06:04.788Z,730.00
2023-05-14T04:07:04.873Z,734.00
2023-05-14T04:08:04.964Z,717.00
2023-05-14T04:09:05.037Z,737.00
2023-05-14T04:10:05.146Z,722.00
2023-05-14T04:11:05.219Z,717.00
2023-05-14T04:12:05.302Z,729.00
2023-05-14T04:13:05.391Z,726.00
2023-05-14T04:14:05.471Z,715.00
2023-05-14T04:15:05.559Z,725.00
2023-05-14T04:16:05.692Z,715.00
2023-05-14T04:17:05.730Z,718.00
2023-05-14T04:18:05.849Z,718.00
2023-05-14T04:19:05.967Z,725.00
2023-05-14T04:20:06.924Z,719.00
2023-05-14T04:21:06.049Z,723.00
2023-05-14T04:22:06.132Z,716.00
2023-05-14T04:23:06.204Z,730.00
2023-05-14T04:24:06.295Z,728.00
2023-05-14T04:25:06.372Z,721.00
2023-05-14T04:26:06.500Z,724.00
2023-05-14T04:27:06.541Z,725.00
2023-05-14T04:28:06.606Z,712.00
2023-05-14T04:29:06.656Z,721.00
2023-05-14T04:30:06.725Z,721.00
2023-05-14T04:31:06.808Z,723.00
2023-05-14T04:32:06.923Z,732.00
2023-05-14T04:33:07.021Z,723.00
2023-05-14T04:34:07.047Z,733.00
2023-05-14T04:35:07.138Z,713.00
2023-05-14T04:36:07.231Z,721.00
2023-05-14T04:37:07.286Z,723.00
2023-05-14T04:38:07.372Z,721.00
2023-05-14T04:39:07.456Z,729.00
2023-05-14T04:40:07.529Z,721.00
2023-05-14T04:41:07.606Z,715.00
2023-05-14T04:42:07.690Z,713.00
2023-05-14T04:43:07.790Z,713.00
2023-05-14T04:44:07.864Z,724.00
2023-05-14T04:45:07.945Z,718.00
2023-05-14T04:46:08.065Z,712.00
2023-05-14T04:47:08.126Z,728.00
2023-05-14T04:48:08.261Z,708.00
2023-05-14T04:49:08.293Z,716.00
2023-05-14T04:50:08.382Z,720.00
2023-05-14T04:51:08.474Z,717.00
2023-05-14T04:52:08.559Z,712.00
2023-05-14T04:53:08.649Z,709.00
2023-05-14T04:54:08.765Z,711.00
2023-05-14T04:55:08.791Z,721.00
2023-05-14T04:56:08.869Z,713.00
2023-05-14T04:57:08.952Z,717.00
2023-05-14T04:58:09.042Z,715.00
2023-05-14T04:59:09.117Z,710.00
2023-05-14T05:00:09.192Z,716.00
2023-05-14T05:01:09.338Z,729.00
2023-05-14T05:02:09.357Z,716.00
2023-05-14T05:03:09.532Z,716.00
2023-05-14T05:04:09.600Z,721.00
2023-05-14T05:05:09.604Z,708.00
2023-05-14T05:06:09.692Z,718.00
2023-05-14T05:07:09.768Z,709.00
2023-05-14T05:08:09.857Z,713.00
2023-05-14T05:09:09.942Z,711.00
2023-05-14T05:10:10.031Z,709.00
2023-05-14T05:11:10.110Z,716.00
2023-05-14T05:12:10.185Z,716.00
2023-05-14T05:13:10.270Z,714.00
2023-05-14T05:14:10.361Z,712.00
2023-05-14T05:15:10.466Z,706.00
2023-05-14T05:16:10.662Z,701.00
2023-05-14T05:17:10.624Z,715.00
2023-05-14T05:18:10.710Z,716.00
2023-05-14T05:19:10.831Z,701.00
2023-05-14T05:20:10.865Z,700.00
2023-05-14T05:21:10.949Z,703.00
2023-05-14T05:22:11.053Z,721.00
2023-05-14T05:23:11.124Z,715.00
2023-05-14T05:24:11.215Z,714.00
2023-05-14T05:25:11.308Z,713.00
2023-05-14T05:26:11.406Z,701.00
2023-05-14T05:27:11.488Z,703.00
2023-05-14T05:28:11.569Z,710.00
2023-05-14T05:29:11.657Z,709.00
2023-05-14T05:30:11.745Z,701.00
2023-05-14T05:31:11.879Z,709.00
2023-05-14T05:32:11.906Z,713.00
2023-05-14T05:33:12.056Z,705.00
2023-05-14T05:34:12.093Z,707.00
2023-05-14T05:35:12.167Z,705.00
2023-05-14T05:36:12.249Z,698.00
2023-05-14T05:37:12.337Z,711.00
2023-05-14T05:38:12.427Z,704.00
2023-05-14T05:39:12.480Z,704.00
2023-05-14T05:40:12.553Z,707.00
2023-05-14T05:41:12.632Z,695.00
2023-05-14T05:42:12.726Z,696.00
2023-05-14T05:43:12.797Z,714.00
2023-05-14T05:44:12.882Z,712.00
2023-05-14T05:45:12.971Z,708.00
2023-05-14T05:46:13.110Z,708.00
2023-05-14T05:47:13.182Z,697.00
2023-05-14T05:48:13.227Z,688.00
2023-05-14T05:49:13.303Z,704.00
2023-05-14T05:50:13.392Z,709.00
2023-05-14T05:51:13.477Z,705.00
2023-05-14T05:52:13.558Z,692.00
2023-05-14T05:53:13.735Z,704.00
2023-05-14T05:54:13.722Z,692.00
2023-05-14T05:55:13.816Z,707.00
2023-05-14T05:56:13.893Z,688.00
2023-05-14T05:57:13.985Z,701.00
2023-05-14T05:58:14.073Z,687.00
2023-05-14T05:59:14.150Z,689.00
2023-05-14T06:00:14.253Z,698.00
2023-05-14T06:01:14.319Z,703.00
2023-05-14T06:02:14.460Z,710.00
2023-05-14T06:03:14.565Z,700.00
2023-05-14T06:04:14.587Z,687.00
2023-05-14T06:05:14.741Z,701.00
2023-05-14T06:06:14.745Z,700.00
2023-05-14T06:07:14.831Z,706.00
2023-05-14T06:08:14.920Z,692.00
2023-05-14T06:09:15.005Z,702.00
2023-05-14T06:10:15.092Z,693.00
2023-05-14T06:11:15.184Z,699.00
2023-05-14T06:12:15.291Z,688.00
2023-05-14T06:13:15.361Z,712.00
2023-05-14T06:14:15.436Z,689.00
2023-05-14T06:15:15.514Z,685.00
2023-05-14T06:16:15.610Z,690.00
2023-05-14T06:17:15.642Z,699.00
2023-05-14T06:18:15.737Z,699.00
2023-05-14T06:19:15.950Z,696.00
2023-05-14T06:20:15.927Z,700.00
2023-05-14T06:21:16.016Z,695.00
2023-05-14T06:22:16.109Z,692.00
2023-05-14T06:23:16.201Z,699.00
2023-05-14T06:24:16.292Z,701.00
2023-05-14T06:25:16.404Z,700.00
2023-05-14T06:26:16.479Z,700.00
2023-05-14T06:27:16.564Z,703.00
2023-05-14T06:28:16.653Z,701.00
2023-05-14T06:29:16.743Z,701.00
2023-05-14T06:30:16.834Z,686.00
2023-05-14T06:31:16.934Z,689.00
2023-05-14T06:32:17.050Z,691.00
2023-05-14T06:33:18.748Z,699.00
2023-05-14T06:34:17.097Z,705.00
2023-05-14T06:35:17.114Z,703.00
2023-05-14T06:36:17.120Z,705.00
2023-05-14T06:37:17.144Z,704.00
2023-05-14T06:38:17.178Z,699.00
2023-05-14T06:39:17.179Z,697.00
2023-05-14T06:40:17.211Z,682.00
2023-05-14T06:41:17.230Z,686.00
2023-05-14T06:42:17.248Z,696.00
2023-05-14T06:43:17.247Z,688.00
2023-05-14T06:44:17.261Z,678.00
2023-05-14T06:45:17.267Z,690.00
2023-05-14T06:46:17.309Z,695.00
2023-05-14T06:47:17.302Z,688.00
2023-05-14T06:48:17.390Z,695.00
2023-05-14T06:49:17.448Z,672.00
2023-05-14T06:50:17.369Z,699.00
2023-05-14T06:51:17.382Z,684.00
2023-05-14T06:52:17.404Z,694.00
2023-05-14T06:53:17.423Z,686.00
2023-05-14T06:54:17.439Z,682.00
2023-05-14T06:55:17.454Z,700.00
2023-05-14T06:56:17.490Z,692.00
2023-05-14T06:57:17.491Z,690.00
2023-05-14T06:58:17.515Z,699.00
2023-05-14T06:59:17.515Z,686.00
2023-05-14T07:00:17.545Z,701.00
2023-05-14T07:01:17.622Z,681.00
2023-05-14T07:02:17.590Z,691.00
2023-05-14T07:03:17.604Z,693.00
2023-05-14T07:04:17.648Z,695.00
2023-05-14T07:05:17.668Z,700.00
2023-05-14T07:06:17.714Z,691.00
2023-05-14T07:07:17.793Z,689.00
2023-05-14T07:08:17.893Z,687.00
2023-05-14T07:09:17.982Z,676.00
2023-05-14T07:10:18.080Z,693.00
2023-05-14T07:11:18.161Z,694.00
2023-05-14T07:12:18.240Z,670.00
2023-05-14T07:13:18.311Z,693.00
2023-05-14T07:14:18.405Z,676.00
2023-05-14T07:15:18.489Z,695.00
2023-05-14T07:16:18.563Z,685.00
2023-05-14T07:17:18.712Z,681.00
2023-05-14T07:18:18.740Z,677.00
2023-05-14T07:19:18.859Z,684.00
2023-05-14T07:20:18.924Z,688.00
2023-05-14T07:21:18.995Z,687.00
2023-05-14T07:22:19.101Z,675.00
2023-05-14T07:23:20.000Z,674.00
2023-05-14T07:24:19.286Z,684.00
2023-05-14T07:25:19.351Z,677.00
2023-05-14T07:26:19.444Z,666.00
2023-05-14T07:27:19.533Z,692.00
2023-05-14T07:28:19.618Z,693.00
2023-05-14T07:29:19.704Z,673.00
2023-05-14T07:30:19.794Z,688.00
2023-05-14T07:31:19.930Z,679.00
2023-05-14T07:32:19.969Z,676.00
2023-05-14T07:33:20.055Z,677.00
2023-05-14T07:34:20.137Z,677.00
2023-05-14T07:35:20.217Z,664.00
2023-05-14T07:36:20.304Z,675.00
2023-05-14T07:37:21.956Z,678.00
2023-05-14T07:38:20.400Z,668.00
2023-05-14T07:39:20.423Z,671.00
2023-05-14T07:40:20.451Z,665.00
2023-05-14T07:41:20.459Z,664.00
2023-05-14T07:42:34.467Z,664.00
2023-05-14T07:43:21.492Z,664.00
2023-05-14T07:44:20.498Z,665.00
2023-05-14T07:45:20.519Z,671.00
2023-05-14T07:46:20.545Z,670.00
2023-05-14T07:47:20.582Z,681.00
2023-05-14T07:48:20.595Z,663.00
2023-05-14T07:49:20.599Z,665.00
2023-05-14T07:50:20.610Z,665.00
2023-05-14T07:51:20.618Z,671.00
2023-05-14T07:52:20.665Z,672.00
2023-05-14T07:53:21.502Z,664.00
2023-05-14T07:54:20.819Z,668.00
2023-05-14T07:55:20.874Z,656.00
2023-05-14T07:56:20.950Z,655.00
2023-05-14T07:57:21.029Z,662.00
2023-05-14T07:58:21.080Z,660.00
2023-05-14T07:59:21.156Z,662.00
2023-05-14T08:00:21.352Z,662.00
2023-05-14T08:01:21.292Z,664.00
2023-05-14T08:02:21.558Z,658.00
2023-05-14T08:03:21.538Z,653.00
2023-05-14T08:04:21.524Z,658.00
2023-05-14T08:05:21.556Z,659.00
2023-05-14T08:06:21.681Z,657.00
2023-05-14T08:07:21.698Z,662.00
2023-05-14T08:08:21.757Z,658.00
2023-05-14T08:09:21.816Z,661.00
2023-05-14T08:10:22.026Z,660.00
2023-05-14T08:11:22.033Z,657.00
2023-05-14T08:12:22.014Z,653.00
2023-05-14T08:13:22.067Z,655.00
2023-05-14T08:14:22.124Z,663.00
2023-05-14T08:15:22.194Z,660.00
2023-05-14T08:16:22.326Z,658.00
2023-05-14T08:17:22.326Z,660.00
2023-05-14T08:18:22.366Z,659.00
2023-05-14T08:19:22.436Z,657.00
2023-05-14T08:20:22.632Z,658.00
2023-05-14T08:21:22.533Z,660.00
2023-05-14T08:22:22.594Z,658.00
2023-05-14T08:23:22.651Z,653.00
2023-05-14T08:24:22.724Z,658.00
2023-05-14T08:25:22.769Z,657.00
2023-05-14T08:26:22.816Z,656.00
2023-05-14T08:27:22.900Z,657.00
2023-05-14T08:28:22.931Z,654.00
2023-05-14T08:29:22.997Z,657.00
2023-05-14T08:30:23.471Z,657.00
2023-05-14T08:31:23.197Z,651.00
2023-05-14T08:32:24.065Z,651.00
2023-05-14T08:33:23.200Z,657.00
2023-05-14T08:34:23.250Z,650.00
2023-05-14T08:35:23.294Z,658.00
2023-05-14T08:36:23.355Z,656.00
2023-05-14T08:37:23.410Z,653.00
2023-05-14T08:38:23.463Z,655.00
2023-05-14T08:39:23.504Z,647.00
2023-05-14T08:40:23.763Z,649.00
2023-05-14T08:41:23.604Z,653.00
2023-05-14T08:42:23.653Z,654.00
2023-05-14T08:43:23.699Z,654.00
2023-05-14T08:44:23.740Z,653.00
2023-05-14T08:45:23.792Z,647.00
2023-05-14T08:46:23.834Z,650.00
2023-05-14T08:47:24.096Z,656.00
2023-05-14T08:48:24.016Z,652.00
2023-05-14T08:49:23.984Z,653.00
2023-05-14T08:50:24.080Z,652.00
2023-05-14T08:51:24.096Z,657.00
2023-05-14T08:52:24.150Z,657.00
2023-05-14T08:53:24.210Z,651.00
2023-05-14T08:54:24.252Z,652.00
2023-05-14T08:55:25.054Z,657.00
2023-05-14T08:56:24.365Z,654.00
2023-05-14T08:57:24.421Z,654.00
2023-05-14T08:58:24.484Z,657.00
2023-05-14T08:59:24.573Z,653.00
2023-05-14T09:00:24.860Z,655.00
2023-05-14T09:01:24.674Z,658.00
2023-05-14T09:02:24.738Z,656.00
2023-05-14T09:03:24.748Z,654.00
2023-05-14T09:04:24.773Z,655.00
2023-05-14T09:05:24.820Z,656.00
2023-05-14T09:06:24.864Z,654.00
2023-05-14T09:07:24.913Z,653.00
2023-05-14T09:08:24.972Z,661.00
2023-05-14T09:09:25.026Z,655.00
2023-05-14T09:10:25.338Z,655.00
2023-05-14T09:11:25.117Z,661.00
2023-05-14T09:12:25.170Z,655.00
2023-05-14T09:13:26.977Z,657.00
2023-05-14T09:14:25.190Z,660.00
2023-05-14T09:15:25.205Z,659.00
2023-05-14T09:16:25.250Z,661.00
2023-05-14T09:17:25.282Z,652.00
2023-05-14T09:18:25.360Z,661.00
2023-05-14T09:19:25.273Z,659.00
2023-05-14T09:20:26.647Z,656.00
2023-05-14T09:21:25.285Z,666.00
2023-05-14T09:22:25.286Z,665.00
2023-05-14T09:23:25.285Z,661.00
2023-05-14T09:24:25.358Z,661.00
2023-05-14T09:25:25.316Z,660.00
2023-05-14T09:26:25.323Z,663.00
2023-05-14T09:27:25.340Z,663.00
2023-05-14T09:28:25.368Z,660.00
2023-05-14T09:29:25.361Z,660.00
2023-05-14T09:30:25.548Z,661.00
2023-05-14T09:31:25.425Z,659.00
2023-05-14T09:32:25.463Z,658.00
2023-05-14T09:33:25.392Z,662.00
2023-05-14T09:34:25.401Z,657.00
2023-05-14T09:35:25.433Z,666.00
2023-05-14T09:36:25.421Z,662.00
2023-05-14T09:37:25.439Z,657.00
2023-05-14T09:38:25.446Z,657.00
2023-05-14T09:39:25.525Z,658.00
2023-05-14T09:40:25.621Z,661.00
2023-05-14T09:41:25.472Z,661.00
2023-05-14T09:42:25.499Z,662.00
2023-05-14T09:43:25.535Z,660.00
2023-05-14T09:44:25.585Z,661.00
2023-05-14T09:45:25.653Z,660.00
2023-05-14T09:46:25.682Z,659.00
2023-05-14T09:47:25.872Z,660.00
2023-05-14T09:48:25.807Z,662.00
2023-05-14T09:49:25.836Z,657.00
2023-05-14T09:50:26.150Z,664.00
2023-05-14T09:51:25.932Z,663.00
2023-05-14T09:52:25.989Z,661.00
2023-05-14T09:53:26.041Z,662.00
2023-05-14T09:54:26.086Z,661.00
2023-05-14T09:55:26.134Z,664.00
2023-05-14T09:56:26.183Z,661.00
2023-05-14T09:57:26.226Z,661.00
2023-05-14T09:58:26.283Z,665.00
2023-05-14T09:59:26.328Z,662.00
2023-05-14T10:00:26.500Z,660.00
2023-05-14T10:01:26.457Z,663.00
2023-05-14T10:02:26.537Z,663.00
2023-05-14T10:03:26.562Z,664.00
2023-05-14T10:04:26.650Z,665.00
2023-05-14T10:05:26.664Z,662.00
2023-05-14T10:06:26.713Z,658.00
2023-05-14T10:07:26.777Z,662.00
2023-05-14T10:08:26.805Z,663.00
2023-05-14T10:09:26.851Z,664.00
2023-05-14T10:10:27.385Z,669.00
2023-05-14T10:11:26.952Z,664.00
2023-05-14T10:12:27.017Z,661.00
2023-05-14T10:13:27.063Z,661.00
2023-05-14T10:14:27.127Z,664.00
2023-05-14T10:15:27.186Z,666.00
2023-05-14T10:16:27.270Z,665.00
2023-05-14T10:17:27.371Z,663.00
2023-05-14T10:18:27.389Z,673.00
2023-05-14T10:19:27.446Z,671.00
2023-05-14T10:20:27.462Z,670.00
2023-05-14T10:21:27.514Z,668.00
2023-05-14T10:22:27.563Z,665.00
2023-05-14T10:23:27.612Z,670.00
2023-05-14T10:24:27.664Z,667.00
2023-05-14T10:25:27.712Z,673.00
2023-05-14T10:26:27.784Z,675.00
2023-05-14T10:27:27.833Z,660.00
2023-05-14T10:28:27.889Z,664.00
2023-05-14T10:29:27.947Z,670.00
2023-05-14T10:30:28.007Z,669.00
2023-05-14T10:31:28.144Z,677.00
2023-05-14T10:32:28.157Z,680.00
2023-05-14T10:33:28.177Z,667.00
2023-05-14T10:34:28.240Z,677.00
2023-05-14T10:35:28.284Z,668.00
2023-05-14T10:36:28.339Z,670.00
2023-05-14T10:37:28.394Z,673.00
2023-05-14T10:38:28.465Z,674.00
2023-05-14T10:39:28.505Z,670.00
2023-05-14T10:40:28.564Z,667.00
2023-05-14T10:41:28.630Z,670.00
2023-05-14T10:42:28.681Z,666.00
2023-05-14T10:43:28.788Z,672.00
2023-05-14T10:44:28.808Z,668.00
2023-05-14T10:45:28.846Z,666.00
2023-05-14T10:46:28.930Z,673.00
2023-05-14T10:47:28.965Z,670.00
2023-05-14T10:48:29.029Z,671.00
2023-05-14T10:50:29.093Z,680.00
2023-05-14T10:51:29.149Z,669.00
2023-05-14T10:52:29.123Z,678.00
2023-05-14T10:53:29.138Z,666.00
2023-05-14T10:54:29.156Z,665.00
2023-05-14T10:55:29.170Z,667.00
2023-05-14T10:56:29.182Z,665.00
2023-05-14T10:57:29.196Z,666.00
2023-05-14T10:58:29.203Z,674.00
2023-05-14T10:59:29.225Z,672.00
2023-05-14T11:00:29.231Z,663.00
2023-05-14T11:01:29.300Z,663.00
2023-05-14T11:02:29.307Z,674.00
2023-05-14T11:03:29.310Z,669.00
2023-05-14T11:04:29.304Z,664.00
2023-05-14T11:05:29.323Z,660.00
2023-05-14T11:06:29.342Z,661.00
2023-05-14T11:07:29.348Z,667.00
2023-05-14T11:08:29.551Z,670.00
2023-05-14T11:09:29.383Z,670.00
2023-05-14T11:10:29.405Z,665.00
2023-05-14T11:11:29.412Z,664.00
2023-05-14T11:12:29.433Z,666.00
2023-05-14T11:13:29.444Z,663.00
2023-05-14T11:14:29.474Z,661.00
2023-05-14T11:15:29.485Z,668.00
2023-05-14T11:16:29.512Z,662.00
2023-05-14T11:17:29.560Z,663.00
2023-05-14T11:18:29.642Z,658.00
2023-05-14T11:19:29.564Z,659.00
2023-05-14T11:20:29.562Z,662.00
2023-05-14T11:21:29.607Z,664.00
2023-05-14T11:22:29.578Z,658.00
2023-05-14T11:23:29.589Z,662.00
2023-05-14T11:24:29.601Z,662.00
2023-05-14T11:25:29.630Z,662.00
2023-05-14T11:26:29.677Z,664.00
2023-05-14T11:27:29.664Z,660.00
2023-05-14T11:28:29.655Z,660.00
2023-05-14T11:29:29.656Z,664.00
2023-05-14T11:30:29.678Z,657.00
2023-05-14T11:31:29.718Z,660.00
2023-05-14T11:32:29.753Z,660.00
2023-05-14T11:33:29.731Z,658.00
2023-05-14T11:34:29.751Z,658.00
2023-05-14T11:35:29.765Z,660.00
2023-05-14T11:36:29.787Z,662.00
2023-05-14T11:37:29.804Z,659.00
2023-05-14T11:38:29.815Z,660.00
2023-05-14T11:39:29.829Z,659.00
2023-05-14T11:40:29.847Z,658.00
2023-05-14T11:41:29.856Z,663.00
2023-05-14T11:42:29.872Z,662.00
2023-05-14T11:43:29.905Z,662.00
2023-05-14T11:44:29.952Z,663.00
2023-05-14T11:45:30.036Z,659.00
2023-05-14T11:46:30.137Z,659.00
2023-05-14T11:47:30.107Z,659.00
2023-05-14T11:48:30.124Z,660.00
2023-05-14T11:49:30.164Z,659.00
2023-05-14T11:50:30.223Z,655.00
2023-05-14T11:51:30.273Z,663.00
2023-05-14T11:52:30.338Z,657.00
2023-05-14T11:53:30.399Z,660.00
2023-05-14T11:54:30.455Z,661.00
2023-05-14T11:55:30.488Z,659.00
2023-05-14T11:56:30.527Z,663.00
2023-05-14T11:57:30.574Z,660.00
2023-05-14T11:58:30.637Z,661.00
2023-05-14T11:59:30.679Z,663.00
2023-05-14T12:00:30.733Z,659.00
2023-05-14T12:01:30.775Z,662.00
2023-05-14T12:02:30.919Z,663.00
2023-05-14T12:03:31.075Z,664.00
2023-05-14T12:04:31.012Z,660.00
2023-05-14T12:05:30.982Z,662.00
2023-05-14T12:06:31.030Z,665.00
2023-05-14T12:07:31.076Z,663.00
2023-05-14T12:08:31.125Z,664.00
2023-05-14T12:09:31.167Z,670.00
2023-05-14T12:10:31.211Z,663.00
2023-05-14T12:11:31.261Z,664.00
2023-05-14T12:12:31.310Z,664.00
2023-05-14T12:13:31.386Z,662.00
2023-05-14T12:14:31.416Z,664.00
2023-05-14T12:15:31.461Z,662.00
2023-05-14T12:16:32.213Z,665.00
2023-05-14T12:17:31.571Z,664.00
2023-05-14T12:18:31.868Z,661.00
2023-05-14T12:19:31.666Z,670.00
2023-05-14T12:20:31.714Z,663.00
2023-05-14T12:21:31.756Z,662.00
2023-05-14T12:22:31.810Z,665.00
2023-05-14T12:23:31.854Z,659.00
2023-05-14T12:24:31.904Z,663.00
2023-05-14T12:25:31.961Z,661.00
2023-05-14T12:26:32.009Z,661.00
2023-05-14T12:27:32.063Z,661.00
2023-05-14T12:28:32.118Z,657.00
2023-05-14T12:29:32.165Z,659.00
2023-05-14T12:30:32.218Z,661.00